createdAt,value
2018-02-18T00:00:33.972Z,8.80
2018-02-18T00:03:01.487Z,8.90
2018-02-18T00:05:28.992Z,8.80
2018-02-18T00:07:56.515Z,8.80
2018-02-18T00:10:24.035Z,8.90
2018-02-18T00:12:51.553Z,8.80
2018-02-18T00:15:19.835Z,8.80
2018-02-18T00:17:48.111Z,8.80
2018-02-18T00:20:16.391Z,8.80
2018-02-18T00:22:44.684Z,8.90
2018-02-18T00:25:12.207Z,8.90
2018-02-18T00:27:39.731Z,8.80
2018-02-18T00:30:07.234Z,8.80
2018-02-18T00:32:35.531Z,8.80
2018-02-18T00:35:03.803Z,8.80
2018-02-18T00:37:32.109Z,8.80
2018-02-18T00:39:59.622Z,8.80
2018-02-18T00:42:27.146Z,8.80
2018-02-18T00:44:54.677Z,8.80
2018-02-18T00:47:22.189Z,8.80
2018-02-18T00:49:49.711Z,8.80
2018-02-18T00:52:17.223Z,8.80
2018-02-18T00:54:44.759Z,8.80
2018-02-18T00:57:12.267Z,8.80
2018-02-18T00:59:39.796Z,8.80
2018-02-18T01:02:07.307Z,8.80
2018-02-18T01:04:34.834Z,8.80
2018-02-18T01:07:03.107Z,8.80
2018-02-18T01:09:31.397Z,8.70
2018-02-18T01:11:59.676Z,8.70
2018-02-18T01:14:27.973Z,8.80
2018-02-18T01:16:55.483Z,8.80
2018-02-18T01:19:23.011Z,8.70
2018-02-18T01:21:50.528Z,8.70
2018-02-18T01:24:18.811Z,8.70
2018-02-18T01:26:46.320Z,8.80
2018-02-18T01:29:13.836Z,8.50
2018-02-18T01:31:41.352Z,8.70
2018-02-18T01:34:08.874Z,8.70
2018-02-18T01:36:36.404Z,8.80
2018-02-18T01:39:04.722Z,8.70
2018-02-18T01:41:32.248Z,8.80
2018-02-18T01:44:00.520Z,8.70
2018-02-18T01:46:28.804Z,8.70
2018-02-18T01:48:57.091Z,8.70
2018-02-18T01:51:24.635Z,8.80
2018-02-18T01:53:52.911Z,8.70
2018-02-18T01:56:21.211Z,8.70
2018-02-18T01:58:48.724Z,8.50
2018-02-18T02:01:16.269Z,8.70
2018-02-18T02:03:43.780Z,8.70
2018-02-18T02:06:11.288Z,8.70
2018-02-18T02:08:38.821Z,8.60
2018-02-18T02:11:06.328Z,8.60
2018-02-18T02:13:33.850Z,8.60
2018-02-18T02:16:01.356Z,8.60
2018-02-18T02:18:29.652Z,8.60
2018-02-18T02:20:57.918Z,8.60
2018-02-18T02:23:26.203Z,8.60
2018-02-18T02:25:54.481Z,8.60
2018-02-18T02:28:22.771Z,8.60
2018-02-18T02:30:50.276Z,8.80
2018-02-18T02:33:17.816Z,8.60
2018-02-18T02:35:45.325Z,8.60
2018-02-18T02:38:13.604Z,8.60
2018-02-18T02:40:41.891Z,8.60
2018-02-18T02:43:10.162Z,8.60
2018-02-18T02:45:38.454Z,8.60
2018-02-18T02:48:05.960Z,8.90
2018-02-18T02:50:33.484Z,8.50
2018-02-18T02:53:00.992Z,8.50
2018-02-18T02:55:28.524Z,8.50
2018-02-18T02:57:56.036Z,8.50
2018-02-18T03:00:24.330Z,8.50
2018-02-18T03:02:51.839Z,8.80
2018-02-18T03:05:19.384Z,8.50
2018-02-18T03:07:46.892Z,8.50
2018-02-18T03:10:15.173Z,8.50
2018-02-18T03:12:43.468Z,8.50
2018-02-18T03:15:10.986Z,8.70
2018-02-18T03:17:38.495Z,8.50
2018-02-18T03:20:06.011Z,8.50
2018-02-18T03:22:34.300Z,8.50
2018-02-18T03:25:02.584Z,8.40
2018-02-18T03:27:30.884Z,8.40
2018-02-18T03:29:58.379Z,8.70
2018-02-18T03:32:25.921Z,8.40
2018-02-18T03:34:54.196Z,8.40
2018-02-18T03:37:21.699Z,8.50
2018-02-18T03:39:49.222Z,8.40
2018-02-18T03:42:16.755Z,8.40
2018-02-18T03:44:44.280Z,8.40
2018-02-18T03:47:11.794Z,8.40
2018-02-18T03:49:39.325Z,8.40
2018-02-18T03:52:07.600Z,8.40
2018-02-18T03:54:35.884Z,8.40
2018-02-18T03:57:04.164Z,8.40
2018-02-18T03:59:32.451Z,8.40
2018-02-18T04:01:59.965Z,8.50
2018-02-18T04:04:27.495Z,8.40
2018-02-18T04:06:55.007Z,8.40
2018-02-18T04:09:23.295Z,8.40
2018-02-18T04:11:51.571Z,8.20
2018-02-18T04:14:19.853Z,8.40
2018-02-18T04:16:48.139Z,8.40
2018-02-18T04:19:15.648Z,8.40
2018-02-18T04:21:43.171Z,8.40
2018-02-18T04:24:10.684Z,8.40
2018-02-18T04:26:38.224Z,8.40
2018-02-18T04:29:05.740Z,8.40
2018-02-18T04:31:33.276Z,8.30
2018-02-18T04:34:01.552Z,8.40
2018-02-18T04:36:29.848Z,8.30
2018-02-18T04:38:57.364Z,8.40
2018-02-18T04:41:24.932Z,8.50
2018-02-18T04:43:52.450Z,8.40
2018-02-18T04:46:19.971Z,8.30
2018-02-18T04:48:48.260Z,8.40
2018-02-18T04:51:16.531Z,8.30
2018-02-18T04:53:44.917Z,8.40
2018-02-18T04:56:13.208Z,8.40
2018-02-18T04:58:40.743Z,8.10
2018-02-18T05:01:09.039Z,8.30
2018-02-18T05:03:37.334Z,8.30
2018-02-18T05:06:04.872Z,8.40
2018-02-18T05:08:33.158Z,8.30
2018-02-18T05:11:00.679Z,8.50
2018-02-18T05:13:28.264Z,8.30
2018-02-18T05:15:56.572Z,8.30
2018-02-18T05:18:24.141Z,8.50
2018-02-18T05:20:51.667Z,8.30
2018-02-18T05:23:19.943Z,8.30
2018-02-18T05:25:48.258Z,8.30
2018-02-18T05:28:15.778Z,8.30
2018-02-18T05:30:44.072Z,8.30
2018-02-18T05:33:11.587Z,8.50
2018-02-18T05:35:39.216Z,8.30
2018-02-18T05:38:06.734Z,8.30
2018-02-18T05:40:35.034Z,8.30
2018-02-18T05:43:02.569Z,8.20
2018-02-18T05:45:30.865Z,8.30
2018-02-18T05:47:59.182Z,8.30
2018-02-18T05:50:26.732Z,8.40
2018-02-18T05:52:54.332Z,8.30
2018-02-18T05:55:21.905Z,8.30
2018-02-18T05:57:50.187Z,8.30
2018-02-18T06:00:18.464Z,8.30
2018-02-18T06:02:46.764Z,8.30
2018-02-18T06:05:14.307Z,8.40
2018-02-18T06:07:41.854Z,8.30
2018-02-18T06:10:09.364Z,8.30
2018-02-18T06:12:36.891Z,8.30
2018-02-18T06:15:05.194Z,8.30
2018-02-18T06:17:32.764Z,8.40
2018-02-18T06:20:00.325Z,8.30
2018-02-18T06:22:27.851Z,8.30
2018-02-18T06:24:56.128Z,8.30
2018-02-18T06:27:24.489Z,8.30
2018-02-18T06:29:52.000Z,8.40
2018-02-18T06:32:19.536Z,8.30
2018-02-18T06:34:47.838Z,8.40
2018-02-18T06:37:15.360Z,8.30
2018-02-18T06:39:43.676Z,8.50
2018-02-18T06:42:11.195Z,8.30
2018-02-18T06:44:39.489Z,8.50
2018-02-18T06:47:07.040Z,8.60
2018-02-18T06:49:35.324Z,8.50
2018-02-18T06:52:03.600Z,8.50
2018-02-18T06:54:31.925Z,8.50
2018-02-18T06:56:59.440Z,8.80
2018-02-18T06:59:26.981Z,8.50
2018-02-18T07:01:54.508Z,8.50
2018-02-18T07:04:22.047Z,8.50
2018-02-18T07:06:50.338Z,8.50
2018-02-18T07:09:17.870Z,8.80
2018-02-18T07:11:45.399Z,8.50
2018-02-18T07:14:12.940Z,8.50
2018-02-18T07:16:40.533Z,8.50
2018-02-18T07:19:08.071Z,8.50
2018-02-18T07:21:35.624Z,8.50
2018-02-18T07:24:03.136Z,8.50
2018-02-18T07:26:31.456Z,8.50
2018-02-18T07:28:58.973Z,8.60
2018-02-18T07:31:27.304Z,8.60
2018-02-18T07:33:54.840Z,8.80
2018-02-18T07:36:22.399Z,8.60
2018-02-18T07:38:49.948Z,8.60
2018-02-18T07:41:18.270Z,8.60
2018-02-18T07:43:45.815Z,8.80
2018-02-18T07:46:13.355Z,8.60
2018-02-18T07:48:40.904Z,8.60
2018-02-18T07:51:09.210Z,8.70
2018-02-18T07:53:36.753Z,8.90
2018-02-18T07:56:04.272Z,8.70
2018-02-18T07:58:31.803Z,8.70
2018-02-18T08:00:59.323Z,8.70
2018-02-18T08:03:27.635Z,8.80
2018-02-18T08:05:55.212Z,8.80
2018-02-18T08:08:22.744Z,8.80
2018-02-18T08:10:50.295Z,8.80
2018-02-18T08:13:17.838Z,8.80
2018-02-18T08:15:46.140Z,8.90
2018-02-18T08:18:13.675Z,9.20
2018-02-18T08:20:41.964Z,8.90
2018-02-18T08:23:09.493Z,9.00
2018-02-18T08:25:37.036Z,9.00
2018-02-18T08:28:04.554Z,9.00
2018-02-18T08:30:32.108Z,9.10
2018-02-18T08:32:59.656Z,9.10
2018-02-18T08:35:27.999Z,9.20
2018-02-18T08:37:55.525Z,9.10
2018-02-18T08:40:23.091Z,9.30
2018-02-18T08:42:50.608Z,9.30
2018-02-18T08:45:18.932Z,9.50
2018-02-18T08:47:46.472Z,9.50
2018-02-18T08:50:13.987Z,9.50
2018-02-18T08:52:41.536Z,9.60
2018-02-18T08:55:09.048Z,9.70
2018-02-18T08:57:37.355Z,9.80
2018-02-18T09:00:04.868Z,9.70
2018-02-18T09:02:33.231Z,9.90
2018-02-18T09:05:00.734Z,9.90
2018-02-18T09:07:28.292Z,10.00
2018-02-18T09:09:55.804Z,10.00
2018-02-18T09:12:23.380Z,10.00
2018-02-18T09:14:51.707Z,10.10
2018-02-18T09:17:19.299Z,10.30
2018-02-18T09:19:46.840Z,10.20
2018-02-18T09:22:14.365Z,10.20
2018-02-18T09:24:41.897Z,10.30
2018-02-18T09:27:09.410Z,10.30
2018-02-18T09:29:36.956Z,10.30
2018-02-18T09:32:04.556Z,10.30
2018-02-18T09:34:32.117Z,10.40
2018-02-18T09:36:59.650Z,10.40
2018-02-18T09:39:27.188Z,10.50
2018-02-18T09:41:55.468Z,10.50
2018-02-18T09:44:23.033Z,10.50
2018-02-18T09:46:51.346Z,10.70
2018-02-18T09:49:18.875Z,10.80
2018-02-18T09:51:46.412Z,10.70
2018-02-18T09:54:13.917Z,10.70
2018-02-18T09:56:41.458Z,10.70
2018-02-18T09:59:09.728Z,10.70
2018-02-18T10:01:37.283Z,10.70
2018-02-18T10:04:05.607Z,10.80
2018-02-18T10:06:33.170Z,11.10
2018-02-18T10:09:00.696Z,10.80
2018-02-18T10:11:28.249Z,10.90
2018-02-18T10:13:55.811Z,10.80
2018-02-18T10:16:24.122Z,10.90
2018-02-18T10:18:51.624Z,10.90
2018-02-18T10:21:19.950Z,11.00
2018-02-18T10:23:47.475Z,11.10
2018-02-18T10:26:15.771Z,11.00
2018-02-18T10:28:43.299Z,11.10
2018-02-18T10:31:10.823Z,11.00
2018-02-18T10:33:38.370Z,11.10
2018-02-18T10:36:05.877Z,11.10
2018-02-18T10:38:33.447Z,11.10
2018-02-18T10:41:01.763Z,11.10
2018-02-18T10:43:29.341Z,11.30
2018-02-18T10:45:56.873Z,11.20
2018-02-18T10:48:24.434Z,11.20
2018-02-18T10:50:51.976Z,11.20
2018-02-18T10:53:20.267Z,11.20
2018-02-18T10:55:47.784Z,11.20
2018-02-18T10:58:15.340Z,11.20
2018-02-18T11:00:42.868Z,11.30
2018-02-18T11:03:10.434Z,11.20
2018-02-18T11:05:37.948Z,11.30
2018-02-18T11:08:06.277Z,11.30
2018-02-18T11:10:33.808Z,11.30
2018-02-18T11:13:01.312Z,11.40
2018-02-18T11:15:28.874Z,11.40
2018-02-18T11:17:56.408Z,11.50
2018-02-18T11:20:23.957Z,11.50
2018-02-18T11:22:51.473Z,11.60
2018-02-18T11:25:19.020Z,11.60
2018-02-18T11:27:46.550Z,11.70
2018-02-18T11:30:14.076Z,11.80
2018-02-18T11:32:41.612Z,11.90
2018-02-18T11:35:09.148Z,12.00
2018-02-18T11:37:36.702Z,12.00
2018-02-18T11:40:04.223Z,12.10
2018-02-18T11:42:32.520Z,12.10
2018-02-18T11:45:00.065Z,12.30
2018-02-18T11:47:27.592Z,12.10
2018-02-18T11:49:55.139Z,12.10
2018-02-18T11:52:22.667Z,12.10
2018-02-18T11:54:50.240Z,12.10
2018-02-18T11:57:17.755Z,12.10
2018-02-18T11:59:46.043Z,12.00
2018-02-18T12:02:14.346Z,12.00
2018-02-18T12:04:41.866Z,12.10
2018-02-18T12:07:10.188Z,12.10
2018-02-18T12:09:37.716Z,12.10
2018-02-18T12:12:06.031Z,12.10
2018-02-18T12:14:33.548Z,11.80
2018-02-18T12:17:01.844Z,12.10
2018-02-18T12:19:29.375Z,12.10
2018-02-18T12:21:56.899Z,12.00
2018-02-18T12:24:24.420Z,12.10
2018-02-18T12:26:51.964Z,12.10
2018-02-18T12:29:20.248Z,12.10
2018-02-18T12:31:48.595Z,12.20
2018-02-18T12:34:16.161Z,11.90
2018-02-18T12:36:43.679Z,12.10
2018-02-18T12:39:11.223Z,12.10
2018-02-18T12:41:40.342Z,12.20
2018-02-18T12:44:07.869Z,12.20
2018-02-18T12:46:36.144Z,12.20
2018-02-18T12:49:04.442Z,12.10
2018-02-18T12:51:31.979Z,12.20
2018-02-18T12:54:00.279Z,12.10
2018-02-18T12:56:27.800Z,12.10
2018-02-18T12:58:55.355Z,12.10
2018-02-18T13:01:22.905Z,12.10
2018-02-18T13:03:50.448Z,12.10
2018-02-18T13:06:17.990Z,12.00
2018-02-18T13:08:45.539Z,12.00
2018-02-18T13:11:13.055Z,12.00
2018-02-18T13:13:40.575Z,12.00
2018-02-18T13:16:08.113Z,12.00
2018-02-18T13:18:35.627Z,12.10
2018-02-18T13:21:03.179Z,12.10
2018-02-18T13:23:30.724Z,12.10
2018-02-18T13:25:58.255Z,12.10
2018-02-18T13:28:25.782Z,12.10
2018-02-18T13:30:53.309Z,12.10
2018-02-18T13:33:20.835Z,12.10
2018-02-18T13:35:48.435Z,12.10
2018-02-18T13:38:15.957Z,12.10
2018-02-18T13:40:43.503Z,12.10
2018-02-18T13:43:11.780Z,12.00
2018-02-18T13:45:40.064Z,12.00
2018-02-18T13:48:07.580Z,12.00
2018-02-18T13:50:35.095Z,12.00
2018-02-18T13:53:02.660Z,12.00
2018-02-18T13:55:30.180Z,11.90
2018-02-18T13:57:57.710Z,11.90
2018-02-18T14:00:25.231Z,11.90
2018-02-18T14:02:52.782Z,11.90
2018-02-18T14:05:21.074Z,11.90
2018-02-18T14:07:48.604Z,11.90
2018-02-18T14:10:16.147Z,11.90
2018-02-18T14:12:43.693Z,11.90
2018-02-18T14:15:11.220Z,11.80
2018-02-18T14:17:38.751Z,11.80
2018-02-18T14:20:06.268Z,11.80
2018-02-18T14:22:33.959Z,11.70
2018-02-18T14:25:01.484Z,11.70
2018-02-18T14:27:29.009Z,11.80
2018-02-18T14:29:57.501Z,11.70
2018-02-18T14:32:25.788Z,11.70
2018-02-18T14:34:53.307Z,11.80
2018-02-18T14:37:20.827Z,11.70
2018-02-18T14:39:48.352Z,11.70
2018-02-18T14:42:28.323Z,11.60
2018-02-18T14:45:07.644Z,11.80
2018-02-18T14:47:47.583Z,11.50
2018-02-18T14:50:27.668Z,11.60
2018-02-18T14:53:06.839Z,11.50
2018-02-18T14:55:46.020Z,11.60
2018-02-18T14:58:14.357Z,11.50
2018-02-18T15:00:41.892Z,11.40
2018-02-18T15:03:09.404Z,11.50
2018-02-18T15:05:37.707Z,11.40
2018-02-18T15:08:05.260Z,11.50
2018-02-18T15:10:32.820Z,11.30
2018-02-18T15:13:00.359Z,11.30
2018-02-18T15:15:28.655Z,11.20
2018-02-18T15:17:56.937Z,11.20
2018-02-18T15:20:24.474Z,11.20
2018-02-18T15:22:52.767Z,11.10
2018-02-18T15:25:21.095Z,11.10
2018-02-18T15:27:48.620Z,11.10
2018-02-18T15:30:16.897Z,11.00
2018-02-18T15:32:45.207Z,11.00
2018-02-18T15:35:12.736Z,11.00
2018-02-18T15:37:41.049Z,10.90
2018-02-18T15:40:08.598Z,10.90
2018-02-18T15:42:36.138Z,10.80
2018-02-18T15:45:04.446Z,10.80
2018-02-18T15:47:31.984Z,10.80
2018-02-18T15:49:59.522Z,10.80
2018-02-18T15:52:27.823Z,10.70
2018-02-18T15:54:55.343Z,10.60
2018-02-18T15:57:22.945Z,10.70
2018-02-18T15:59:50.499Z,10.60
2018-02-18T16:02:18.787Z,10.60
2018-02-18T16:04:46.300Z,10.60
2018-02-18T16:07:13.837Z,10.50
2018-02-18T16:09:41.358Z,10.50
2018-02-18T16:12:09.660Z,10.50
2018-02-18T16:14:37.172Z,10.50
2018-02-18T16:17:05.493Z,10.40
2018-02-18T16:19:33.038Z,10.50
2018-02-18T16:22:00.555Z,10.40
2018-02-18T16:24:28.091Z,10.40
2018-02-18T16:26:55.595Z,10.30
2018-02-18T16:29:23.900Z,10.30
2018-02-18T16:31:51.425Z,10.30
2018-02-18T16:34:18.952Z,10.30
2018-02-18T16:36:46.463Z,10.20
2018-02-18T16:39:14.755Z,10.20
2018-02-18T16:41:42.260Z,10.20
2018-02-18T16:44:09.949Z,10.20
2018-02-18T16:46:37.459Z,10.20
2018-02-18T16:49:05.035Z,10.20
2018-02-18T16:51:32.627Z,10.10
2018-02-18T16:54:00.177Z,10.10
2018-02-18T16:56:27.684Z,10.10
2018-02-18T16:58:55.195Z,10.10
2018-02-18T17:01:22.717Z,10.10
2018-02-18T17:03:50.224Z,10.10
2018-02-18T17:06:17.774Z,10.10
2018-02-18T17:08:45.298Z,10.10
2018-02-18T17:11:12.860Z,10.00
2018-02-18T17:13:40.370Z,10.00
2018-02-18T17:16:08.677Z,10.00
2018-02-18T17:18:36.200Z,10.20
2018-02-18T17:21:03.774Z,10.00
2018-02-18T17:23:32.059Z,10.00
2018-02-18T17:26:00.373Z,9.90
2018-02-18T17:28:27.888Z,10.10
2018-02-18T17:30:56.180Z,9.90
2018-02-18T17:33:24.456Z,9.90
2018-02-18T17:35:52.748Z,9.90
2018-02-18T17:38:20.267Z,10.10
2018-02-18T17:40:47.784Z,9.90
2018-02-18T17:43:15.288Z,9.80
2018-02-18T17:45:42.827Z,9.90
2018-02-18T17:48:10.331Z,9.80
2018-02-18T17:50:38.599Z,9.80
2018-02-18T17:53:06.891Z,9.80
2018-02-18T17:55:35.163Z,9.80
2018-02-18T17:58:03.504Z,9.80
2018-02-18T18:03:04.804Z,9.80
2018-02-18T18:05:33.072Z,9.70
2018-02-18T18:08:00.591Z,9.70
2018-02-18T18:10:28.108Z,9.70
2018-02-18T18:12:56.404Z,9.70
